Time;durP1;ratioP1;P1;durP2;ratioP2;P2;SDS_P1;SDS_P2;PMS_P1;PMS_P2;Temp;Humidity;BMP_temperature;BMP_pressure;BME280_temperature;BME280_humidity;BME280_pressure;Samples;Min_cycle;Max_cycle;Signal;HPM_P1;HPM_P2
2022/08/29 00:00:32;;;;;;;8.20;1.80;;;;;;;16.59;100.00;102178.19;4904672;29;20054;-60
2022/08/29 00:03:00;;;;;;;5.38;1.70;;;;;;;16.56;100.00;102176.66;4904796;29;20533;-60
2022/08/29 00:05:32;;;;;;;4.47;1.60;;;;;;;16.54;100.00;102173.34;4886499;29;20425;-59
2022/08/29 00:08:03;;;;;;;6.90;1.55;;;;;;;16.55;100.00;102174.16;4904865;29;20436;-59
2022/08/29 00:10:32;;;;;;;6.55;1.88;;;;;;;16.50;100.00;102177.25;4907861;29;20058;-59
2022/08/29 00:12:58;;;;;;;3.55;1.40;;;;;;;16.49;99.81;102180.09;4901868;29;20040;-59
2022/08/29 00:15:25;;;;;;;5.18;1.70;;;;;;;16.46;100.00;102180.38;4906006;29;20067;-54
2022/08/29 00:17:52;;;;;;;4.47;1.48;;;;;;;16.43;100.00;102178.88;4914898;29;20055;-60
2022/08/29 00:20:21;;;;;;;4.57;1.67;;;;;;;16.40;100.00;102171.22;4895991;29;20056;-60
2022/08/29 00:23:00;;;;;;;4.53;1.55;;;;;;;16.31;100.00;102172.97;4902353;29;20059;-60
2022/08/29 00:25:26;;;;;;;5.97;1.55;;;;;;;16.16;100.00;102167.34;4898451;29;20048;-60
2022/08/29 00:27:53;;;;;;;4.90;1.60;;;;;;;16.14;100.00;102173.78;4899074;29;20048;-60
2022/08/29 00:30:21;;;;;;;7.15;1.90;;;;;;;16.12;100.00;102163.34;4900686;29;20406;-60
2022/08/29 00:32:47;;;;;;;3.95;1.65;;;;;;;16.11;100.00;102177.56;4909244;29;20048;-60
2022/08/29 00:35:18;;;;;;;6.00;1.88;;;;;;;16.09;100.00;102165.47;4906630;29;20056;-59
2022/08/29 00:37:44;;;;;;;5.68;1.73;;;;;;;16.04;100.00;102165.09;4904258;29;20323;-60
2022/08/29 00:40:16;;;;;;;7.90;1.70;;;;;;;16.10;100.00;102169.78;4905340;29;20052;-60
2022/08/29 00:42:43;;;;;;;6.82;1.50;;;;;;;16.01;100.00;102168.84;4892111;29;20159;-59
2022/08/29 00:45:11;;;;;;;4.45;1.60;;;;;;;15.99;100.00;102176.97;4895472;29;20048;-59
2022/08/29 00:47:44;;;;;;;5.97;1.90;;;;;;;15.93;100.00;102172.25;4897312;29;20059;-59
2022/08/29 00:50:46;;;;;;;3.55;1.67;;;;;;;15.84;100.00;102177.59;4904255;29;20102;-59
2022/08/29 00:53:16;;;;;;;5.57;1.70;;;;;;;15.77;100.00;102177.34;4888976;29;20048;-60
2022/08/29 00:55:46;;;;;;;4.85;1.63;;;;;;;15.69;100.00;102178.06;4902820;29;20504;-60
2022/08/29 00:58:59;;;;;;;4.72;1.75;;;;;;;15.71;100.00;102183.22;4907832;29;20698;-60
2022/08/29 01:01:26;;;;;;;6.57;1.90;;;;;;;15.62;100.00;102183.13;4883018;29;20054;-59
2022/08/29 01:03:53;;;;;;;5.15;1.73;;;;;;;15.62;100.00;102188.41;4910661;29;20770;-59
2022/08/29 01:06:21;;;;;;;3.40;1.50;;;;;;;15.61;100.00;102188.53;4896212;29;20494;-59
2022/08/29 01:08:49;;;;;;;6.60;1.65;;;;;;;15.57;100.00;102181.88;4890673;29;20776;-59
2022/08/29 01:14:09;;;;;;;4.07;1.70;;;;;;;15.49;100.00;102179.97;4905516;29;20540;-59
2022/08/29 01:16:36;;;;;;;5.13;1.90;;;;;;;15.50;100.00;102176.31;4901122;29;20510;-59
2022/08/29 01:19:19;;;;;;;6.25;1.73;;;;;;;15.51;100.00;102178.00;4905969;29;20061;-59
2022/08/29 01:21:54;;;;;;;6.70;1.70;;;;;;;15.46;100.00;102171.47;4897013;29;20655;-57
2022/08/29 01:24:35;;;;;;;4.43;1.60;;;;;;;15.44;100.00;102179.56;4902051;29;20052;-58
2022/08/29 01:27:02;;;;;;;5.32;1.50;;;;;;;15.35;100.00;102177.81;4902972;29;20056;-59
2022/08/29 01:29:29;;;;;;;5.25;1.60;;;;;;;15.32;100.00;102178.06;4886995;29;20564;-59
2022/08/29 01:31:56;;;;;;;4.95;1.73;;;;;;;15.28;100.00;102180.16;4903592;29;20619;-59
2022/08/29 01:34:26;;;;;;;2.85;1.35;;;;;;;15.30;100.00;102182.69;4898445;29;20461;-59
2022/08/29 01:36:56;;;;;;;4.65;1.63;;;;;;;15.25;100.00;102183.13;4903586;29;20058;-58
2022/08/29 01:39:31;;;;;;;3.53;1.50;;;;;;;15.25;100.00;102184.91;4891851;29;20056;-60
2022/08/29 01:42:00;;;;;;;5.30;1.83;;;;;;;15.18;100.00;102185.47;4908611;29;20078;-60
2022/08/29 01:44:27;;;;;;;5.03;1.50;;;;;;;15.11;100.00;102184.41;4896528;29;20045;-60
2022/08/29 01:46:56;;;;;;;4.18;1.45;;;;;;;15.13;100.00;102187.75;4901796;29;20425;-60
2022/08/29 01:49:30;;;;;;;4.57;1.73;;;;;;;15.01;100.00;102189.72;4899978;29;20088;-58
2022/08/29 01:51:56;;;;;;;6.07;1.60;;;;;;;14.98;100.00;102186.53;4896722;29;20518;-60
2022/08/29 01:54:23;;;;;;;2.92;1.33;;;;;;;14.94;100.00;102185.97;4908138;29;20052;-60
2022/08/29 01:56:51;;;;;;;6.93;1.70;;;;;;;14.95;100.00;102181.50;4897158;29;20056;-60
2022/08/29 01:59:19;;;;;;;;;;;;;;;14.93;100.00;102181.66;4907466;29;20087;-59
2022/08/29 02:01:52;;;;;;;9.88;2.20;;;;;;;14.90;100.00;102184.59;4900478;29;19927;-57
2022/08/29 02:04:19;;;;;;;5.07;1.48;;;;;;;14.86;100.00;102185.84;4902377;29;20497;-59
2022/08/29 02:06:45;;;;;;;6.47;1.75;;;;;;;14.80;100.00;102186.41;4904196;29;20056;-60
2022/08/29 02:09:12;;;;;;;7.00;1.80;;;;;;;14.75;100.00;102186.81;4900637;29;20048;-60
2022/08/29 02:11:38;;;;;;;5.50;1.45;;;;;;;14.74;100.00;102189.59;4915578;29;20056;-54
2022/08/29 02:14:06;;;;;;;6.05;1.83;;;;;;;14.78;100.00;102191.00;4898469;29;20066;-62
2022/08/29 02:16:38;;;;;;;5.63;1.77;;;;;;;14.73;100.00;102190.59;4908530;29;20052;-60
2022/08/29 02:19:05;;;;;;;5.93;1.70;;;;;;;14.70;100.00;102186.41;4888371;29;20052;-60
2022/08/29 02:21:31;;;;;;;3.70;1.70;;;;;;;14.67;100.00;102189.34;4901972;29;20056;-60
2022/08/29 02:24:00;;;;;;;4.93;1.88;;;;;;;14.68;100.00;102192.78;4900005;29;20048;-59
2022/08/29 02:26:46;;;;;;;5.38;1.50;;;;;;;14.57;100.00;102181.41;4901179;29;20061;-59
2022/08/29 02:29:13;;;;;;;4.82;1.70;;;;;;;14.57;100.00;102181.41;4907927;29;20059;-58
2022/08/29 02:31:41;;;;;;;7.32;2.20;;;;;;;14.58;100.00;102188.38;4896755;29;20056;-59
2022/08/29 02:34:08;;;;;;;6.30;1.73;;;;;;;14.55;100.00;102185.16;4897162;29;20052;-60
2022/08/29 02:36:36;;;;;;;3.97;1.50;;;;;;;14.53;100.00;102189.72;4902054;29;20111;-59
2022/08/29 02:39:06;;;;;;;4.43;1.52;;;;;;;14.49;100.00;102183.88;4907907;29;20052;-60
2022/08/29 02:41:32;;;;;;;3.95;1.90;;;;;;;14.41;100.00;102181.94;4907999;29;20051;-59
2022/08/29 02:43:59;;;;;;;3.70;1.40;;;;;;;14.39;100.00;102185.69;4898175;29;20533;-58
2022/08/29 02:46:26;;;;;;;4.88;1.73;;;;;;;14.35;100.00;102187.78;4898327;29;20454;-60
2022/08/29 02:48:53;;;;;;;7.05;2.10;;;;;;;14.31;100.00;102190.81;4898668;29;20055;-58
2022/08/29 02:51:29;;;;;;;4.32;1.50;;;;;;;14.31;100.00;102191.66;4906372;29;20048;-58
2022/08/29 02:53:55;;;;;;;4.28;1.85;;;;;;;14.34;100.00;102190.53;4900740;29;20687;-58
2022/08/29 02:56:22;;;;;;;4.03;1.60;;;;;;;14.35;100.00;102189.59;4907268;29;20052;-60
2022/08/29 02:58:49;;;;;;;5.25;2.15;;;;;;;14.39;100.00;102188.34;4897934;29;20044;-59
2022/08/29 03:01:21;;;;;;;3.97;1.60;;;;;;;14.49;100.00;102193.63;4900969;29;20075;-58
2022/08/29 03:03:49;;;;;;;6.53;2.25;;;;;;;14.47;100.00;102188.47;4906165;29;20565;-59
2022/08/29 03:06:16;;;;;;;3.03;1.58;;;;;;;14.42;100.00;102191.50;4902514;29;20484;-60
2022/08/29 03:08:42;;;;;;;3.97;1.77;;;;;;;14.39;100.00;102191.81;4906444;29;20583;-60
2022/08/29 03:11:09;;;;;;;7.40;2.47;;;;;;;14.39;100.00;102185.69;4896756;29;20054;-59
2022/08/29 03:13:36;;;;;;;6.25;1.95;;;;;;;14.31;100.00;102186.38;4903668;29;20056;-59
2022/08/29 03:16:03;;;;;;;6.80;1.80;;;;;;;14.27;100.00;102187.63;4896052;29;20056;-61
2022/08/29 03:18:29;;;;;;;3.85;1.65;;;;;;;14.25;100.00;102179.03;4903938;29;20059;-59
2022/08/29 03:20:56;;;;;;;6.55;2.00;;;;;;;14.20;100.00;102184.69;4907922;29;20421;-59
2022/08/29 03:23:23;;;;;;;3.78;2.10;;;;;;;14.14;100.00;102179.13;4892067;29;20044;-60
2022/08/29 03:25:49;;;;;;;6.18;1.95;;;;;;;14.08;100.00;102182.31;4904602;29;20062;-59
2022/08/29 03:28:16;;;;;;;5.03;1.88;;;;;;;14.01;100.00;102180.22;4886152;29;20052;-59
2022/08/29 03:30:42;;;;;;;6.00;1.88;;;;;;;13.98;100.00;102180.50;4901267;29;20064;-59
2022/08/29 03:33:09;;;;;;;4.82;1.73;;;;;;;13.92;100.00;102181.03;4901287;29;20049;-60
2022/08/29 03:35:37;;;;;;;5.88;1.85;;;;;;;13.91;100.00;102174.06;4899269;29;20048;-59
2022/08/29 03:38:04;;;;;;;6.78;2.10;;;;;;;13.95;100.00;102174.66;4907605;29;20611;-60
2022/08/29 03:40:31;;;;;;;3.47;1.92;;;;;;;13.93;100.00;102176.59;4900138;29;20067;-60
2022/08/29 03:42:57;;;;;;;8.65;2.10;;;;;;;13.93;100.00;102177.41;4906558;29;20103;-58
2022/08/29 03:45:24;;;;;;;5.55;2.20;;;;;;;13.87;100.00;102171.84;4892508;29;20051;-59
2022/08/29 03:47:51;;;;;;;4.47;1.90;;;;;;;13.91;100.00;102171.44;4905430;29;20048;-59
2022/08/29 03:50:19;;;;;;;9.68;2.10;;;;;;;13.91;100.00;102170.63;4903471;29;20059;-58
2022/08/29 03:52:46;;;;;;;6.90;2.60;;;;;;;13.93;100.00;102166.88;4902746;29;20056;-58
2022/08/29 03:55:14;;;;;;;5.72;1.70;;;;;;;13.94;100.00;102168.53;4906090;29;20056;-60
2022/08/29 03:57:40;;;;;;;6.43;2.60;;;;;;;13.93;100.00;102168.69;4902356;28;20060;-60
2022/08/29 04:00:11;;;;;;;4.78;2.00;;;;;;;13.93;100.00;102171.31;4912567;29;20065;-60
2022/08/29 04:02:39;;;;;;;4.88;2.25;;;;;;;13.92;100.00;102180.22;4890948;29;20053;-60
2022/08/29 04:05:05;;;;;;;5.93;2.20;;;;;;;13.88;100.00;102166.44;4899458;29;20516;-59
2022/08/29 04:07:41;;;;;;;6.88;2.50;;;;;;;13.95;100.00;102174.66;4904061;29;20116;-60
2022/08/29 04:10:09;;;;;;;6.20;2.38;;;;;;;13.99;100.00;102168.13;4902533;29;20052;-59
2022/08/29 04:12:36;;;;;;;6.35;2.00;;;;;;;14.02;100.00;102170.50;4905427;29;20524;-59
2022/08/29 04:15:04;;;;;;;5.55;2.13;;;;;;;14.08;100.00;102174.41;4889867;29;20063;-59
2022/08/29 04:17:32;;;;;;;6.13;2.17;;;;;;;14.11;100.00;102176.75;4900536;29;20064;-60
2022/08/29 04:19:59;;;;;;;5.00;2.38;;;;;;;14.10;100.00;102181.22;4897102;29;20056;-59
2022/08/29 04:22:25;;;;;;;5.00;2.03;;;;;;;14.17;100.00;102184.97;4900712;29;20473;-60
2022/08/29 04:24:52;;;;;;;6.75;2.28;;;;;;;14.25;100.00;102186.94;4891780;29;20048;-61
2022/08/29 04:27:18;;;;;;;6.07;2.28;;;;;;;14.25;100.00;102179.03;4897344;29;20080;-58
2022/08/29 04:29:47;;;;;;;6.75;2.00;;;;;;;14.25;100.00;102176.38;4896631;29;20052;-60
2022/08/29 04:32:15;;;;;;;9.10;2.78;;;;;;;14.32;100.00;102182.75;4889754;29;20052;-59
2022/08/29 04:34:42;;;;;;;5.00;2.25;;;;;;;14.35;100.00;102173.75;4902266;29;20056;-60
2022/08/29 04:37:08;;;;;;;5.90;2.28;;;;;;;14.39;100.00;102173.31;4903799;29;20052;-62
2022/08/29 04:39:35;;;;;;;5.43;2.20;;;;;;;14.47;100.00;102177.91;4910760;29;20052;-60
2022/08/29 04:42:01;;;;;;;4.60;1.90;;;;;;;14.52;100.00;102180.94;4904915;29;20052;-61
2022/08/29 04:44:28;;;;;;;6.03;2.17;;;;;;;14.51;100.00;102174.03;4904920;29;20351;-59
2022/08/29 04:46:54;;;;;;;7.72;2.72;;;;;;;14.59;100.00;102176.81;4897341;29;20067;-56
2022/08/29 04:49:21;;;;;;;4.60;2.40;;;;;;;14.60;100.00;102175.88;4904007;29;20497;-60
2022/08/29 04:51:47;;;;;;;5.05;2.22;;;;;;;14.62;100.00;102178.34;4910562;29;20066;-60
2022/08/29 04:54:13;;;;;;;13.27;2.65;;;;;;;14.66;100.00;102176.25;4896130;29;20498;-60
2022/08/29 04:56:40;;;;;;;8.13;2.78;;;;;;;14.72;100.00;102178.34;4911495;29;20060;-59
2022/08/29 04:59:13;;;;;;;5.65;2.50;;;;;;;14.72;100.00;102184.47;4897646;29;20058;-60
2022/08/29 05:01:40;;;;;;;9.60;2.60;;;;;;;14.73;100.00;102188.75;4900757;29;20057;-60
2022/08/29 05:04:08;;;;;;;5.38;2.55;;;;;;;14.79;100.00;102182.09;4904343;29;20051;-60
2022/08/29 05:06:40;;;;;;;6.43;2.50;;;;;;;14.82;100.00;102179.19;4902419;29;20184;-59
2022/08/29 05:09:07;;;;;;;6.97;2.15;;;;;;;14.85;100.00;102185.97;4909340;29;20815;-59
2022/08/29 05:11:33;;;;;;;6.57;2.90;;;;;;;14.88;100.00;102193.59;4890688;29;20066;-60
2022/08/29 05:14:01;;;;;;;6.93;2.97;;;;;;;14.92;100.00;102184.44;4900712;29;20048;-59
2022/08/29 05:16:29;;;;;;;6.85;3.45;;;;;;;15.00;100.00;102184.56;4892213;29;20087;-60
2022/08/29 05:18:58;;;;;;;13.52;3.55;;;;;;;14.99;100.00;102182.88;4902721;29;20070;-58
2022/08/29 05:21:30;;;;;;;8.45;3.28;;;;;;;14.99;100.00;102189.03;4908611;29;20059;-59
2022/08/29 05:24:02;;;;;;;6.25;2.47;;;;;;;14.96;100.00;102184.00;4904435;29;20051;-59
2022/08/29 05:26:30;;;;;;;9.98;3.45;;;;;;;14.94;100.00;102183.31;4901485;29;20052;-59
2022/08/29 05:28:57;;;;;;;10.75;3.05;;;;;;;14.90;100.00;102191.69;4894320;29;20087;-58
2022/08/29 05:31:24;;;;;;;7.05;2.63;;;;;;;14.91;100.00;102193.34;4909374;29;20449;-59
2022/08/29 05:33:51;;;;;;;11.40;2.60;;;;;;;14.91;100.00;102195.97;4901563;29;20063;-60
2022/08/29 05:36:17;;;;;;;25.23;3.10;;;;;;;14.92;100.00;102200.31;4905917;29;20632;-60
2022/08/29 05:38:45;;;;;;;18.15;3.45;;;;;;;14.95;100.00;102189.44;4895170;29;20078;-60
2022/08/29 05:41:11;;;;;;;16.95;3.80;;;;;;;14.97;100.00;102184.84;4893039;29;20060;-60
2022/08/29 05:43:38;;;;;;;7.10;2.72;;;;;;;14.98;100.00;102187.34;4909669;29;20143;-58
2022/08/29 05:46:06;;;;;;;18.75;2.92;;;;;;;15.06;100.00;102191.09;4902731;29;20058;-59
2022/08/29 05:48:33;;;;;;;12.50;2.72;;;;;;;15.07;100.00;102195.38;4898990;29;20115;-60
2022/08/29 05:51:00;;;;;;;13.65;3.20;;;;;;;15.15;100.00;102196.38;4899694;29;20063;-59
2022/08/29 05:53:27;;;;;;;18.08;3.22;;;;;;;15.18;100.00;102195.22;4896292;29;20052;-59
2022/08/29 05:55:53;;;;;;;13.32;3.55;;;;;;;15.22;100.00;102199.25;4911757;29;20432;-59
2022/08/29 05:58:20;;;;;;;19.60;3.95;;;;;;;15.31;100.00;102194.91;4902247;29;20555;-60
2022/08/29 06:00:47;;;;;;;18.40;4.38;;;;;;;15.43;100.00;102194.59;4903367;29;20366;-62
2022/08/29 06:03:15;;;;;;;16.03;3.37;;;;;;;15.54;100.00;102201.53;4885308;29;20158;-59
2022/08/29 06:05:42;;;;;;;10.63;2.55;;;;;;;15.63;100.00;102199.81;4903951;29;20386;-60
2022/08/29 06:08:09;;;;;;;8.75;3.22;;;;;;;15.73;100.00;102200.63;4894665;29;20054;-58
2022/08/29 06:10:40;;;;;;;11.43;2.97;;;;;;;15.89;100.00;102199.97;4901128;29;20060;-59
2022/08/29 06:13:07;;;;;;;10.05;3.05;;;;;;;15.95;100.00;102201.19;4900639;29;20056;-59
2022/08/29 06:15:33;;;;;;;13.00;4.30;;;;;;;16.01;100.00;102206.75;4880077;29;20761;-60
2022/08/29 06:17:59;;;;;;;15.32;4.00;;;;;;;16.06;100.00;102208.94;4900889;29;20060;-60
2022/08/29 06:20:26;;;;;;;10.93;3.88;;;;;;;16.17;100.00;102206.09;4898436;29;20093;-58
2022/08/29 06:22:52;;;;;;;13.43;3.58;;;;;;;16.28;100.00;102210.31;4903058;29;20091;-58
2022/08/29 06:25:19;;;;;;;10.98;3.28;;;;;;;16.40;100.00;102214.41;4892979;29;20051;-59
2022/08/29 06:28:05;;;;;;;18.70;4.32;;;;;;;16.53;100.00;102219.34;4907523;29;20084;-60
2022/08/29 06:30:32;;;;;;;19.55;4.13;;;;;;;16.64;100.00;102215.66;4887512;29;20524;-62
2022/08/29 06:32:59;;;;;;;8.75;2.70;;;;;;;16.76;100.00;102214.41;4900696;29;20055;-60
2022/08/29 06:35:26;;;;;;;8.65;2.88;;;;;;;16.89;100.00;102221.16;4903183;29;20055;-59
2022/08/29 06:37:52;;;;;;;11.00;3.10;;;;;;;16.91;100.00;102222.66;4897339;29;20048;-60
2022/08/29 06:40:18;;;;;;;9.63;2.95;;;;;;;16.96;100.00;102223.03;4904489;29;20141;-61
2022/08/29 06:42:45;;;;;;;6.75;2.95;;;;;;;17.04;99.45;102216.97;4896748;29;20136;-61
2022/08/29 06:45:11;;;;;;;9.88;3.22;;;;;;;17.08;97.85;102217.50;4899691;29;20044;-59
2022/08/29 06:47:38;;;;;;;14.10;3.15;;;;;;;17.17;98.09;102221.84;4894710;29;20489;-61
2022/08/29 06:50:05;;;;;;;7.63;2.75;;;;;;;17.27;98.76;102219.94;4896896;29;20048;-61
2022/08/29 06:52:32;;;;;;;6.77;3.17;;;;;;;17.32;96.99;102225.59;4907096;29;20431;-59
2022/08/29 06:55:01;;;;;;;8.65;3.45;;;;;;;17.31;89.99;102226.59;4895641;29;20308;-60
2022/08/29 06:57:27;;;;;;;9.55;2.92;;;;;;;17.45;92.34;102235.78;4895729;29;20047;-61
2022/08/29 06:59:53;;;;;;;9.65;3.03;;;;;;;17.54;92.76;102224.25;4901529;29;20056;-61
2022/08/29 07:02:20;;;;;;;7.90;2.72;;;;;;;17.61;89.95;102232.38;4900034;29;20056;-58
2022/08/29 07:04:46;;;;;;;11.85;3.47;;;;;;;17.69;91.59;102239.56;4897697;29;20053;-60
2022/08/29 07:07:13;;;;;;;5.80;2.70;;;;;;;17.77;90.46;102231.63;4907398;29;20055;-60
2022/08/29 07:09:39;;;;;;;9.13;2.65;;;;;;;17.88;89.50;102244.66;4908307;29;20051;-60
2022/08/29 07:12:06;;;;;;;10.45;2.90;;;;;;;17.91;85.87;102243.50;4898145;29;20075;-61
2022/08/29 07:14:32;;;;;;;8.30;3.33;;;;;;;17.95;85.45;102235.06;4898955;29;20052;-61
2022/08/29 07:16:59;;;;;;;8.00;3.17;;;;;;;18.07;87.39;102240.91;4892251;29;20059;-61
2022/08/29 07:19:26;;;;;;;9.00;3.03;;;;;;;18.11;85.54;102238.75;4872197;29;20052;-61
2022/08/29 07:21:53;;;;;;;7.55;2.70;;;;;;;18.20;86.08;102237.78;4898312;29;20508;-61
2022/08/29 07:24:23;;;;;;;6.25;2.63;;;;;;;18.24;82.42;102236.47;4904116;29;20048;-60
2022/08/29 07:26:50;;;;;;;10.07;2.60;;;;;;;18.36;84.65;102234.31;4897976;29;20056;-60
2022/08/29 07:29:19;;;;;;;8.77;2.83;;;;;;;18.46;82.80;102232.34;4893574;29;20506;-57
2022/08/29 07:31:46;;;;;;;8.18;2.72;;;;;;;18.56;81.27;102235.69;4904688;29;20060;-64
2022/08/29 07:34:14;;;;;;;6.95;2.80;;;;;;;18.73;82.51;102241.81;4896607;29;20066;-60
2022/08/29 07:36:40;;;;;;;8.10;2.83;;;;;;;18.78;80.19;102244.84;4904331;29;20521;-58
2022/08/29 07:39:10;;;;;;;10.25;3.35;;;;;;;18.97;80.01;102240.19;4901171;29;20051;-63
2022/08/29 07:41:38;;;;;;;8.15;2.28;;;;;;;19.08;79.38;102231.88;4902428;29;20551;-62
2022/08/29 07:44:05;;;;;;;6.40;2.33;;;;;;;19.19;80.20;102236.03;4896683;29;20063;-60
2022/08/29 07:46:32;;;;;;;9.75;2.45;;;;;;;19.23;77.22;102236.50;4900243;29;20066;-61
2022/08/29 07:48:59;;;;;;;4.90;2.40;;;;;;;19.33;76.68;102242.50;4905262;29;20059;-61
2022/08/29 07:51:26;;;;;;;7.18;2.53;;;;;;;19.46;77.12;102236.63;4902143;29;20052;-60
2022/08/29 07:53:53;;;;;;;8.57;2.40;;;;;;;19.59;76.43;102244.91;4901982;29;20067;-60
2022/08/29 07:56:26;;;;;;;7.05;2.40;;;;;;;19.69;75.74;102237.53;4893465;29;20048;-61
2022/08/29 07:58:53;;;;;;;9.40;3.05;;;;;;;19.75;74.90;102233.38;4901467;29;20067;-60
2022/08/29 08:01:20;;;;;;;5.53;2.35;;;;;;;19.85;76.17;102241.16;4898084;29;20063;-59
2022/08/29 08:03:49;;;;;;;7.85;2.70;;;;;;;19.91;74.69;102245.78;4903326;29;20076;-62
2022/08/29 08:06:18;;;;;;;10.55;2.58;;;;;;;19.89;75.01;102235.31;4910864;29;20603;-61
2022/08/29 08:08:45;;;;;;;6.47;2.42;;;;;;;19.82;75.85;102237.03;4893374;29;20610;-61
2022/08/29 08:11:11;;;;;;;5.90;2.40;;;;;;;19.88;77.71;102240.84;4903299;29;20052;-60
2022/08/29 08:13:38;;;;;;;7.30;2.30;;;;;;;19.91;78.12;102237.81;4904054;29;20048;-60
2022/08/29 08:16:11;;;;;;;8.23;2.40;;;;;;;20.05;78.16;102242.41;4910477;29;20040;-60
2022/08/29 08:18:38;;;;;;;8.05;2.53;;;;;;;20.17;79.04;102234.00;4909297;29;20060;-60
2022/08/29 08:21:05;;;;;;;9.95;2.30;;;;;;;20.20;77.79;102233.66;4904825;29;20060;-59
2022/08/29 08:23:32;;;;;;;7.32;2.50;;;;;;;20.41;78.07;102239.19;4900506;29;20075;-61
2022/08/29 08:25:58;;;;;;;9.27;2.60;;;;;;;20.52;75.73;102236.13;4896221;29;20550;-60
2022/08/29 08:28:27;;;;;;;5.20;2.22;;;;;;;20.62;76.63;102233.25;4913299;29;20457;-61
2022/08/29 08:30:54;;;;;;;6.47;2.20;;;;;;;20.71;75.76;102228.66;4896273;29;20087;-56
2022/08/29 08:33:20;;;;;;;5.90;2.22;;;;;;;20.72;75.53;102231.16;4903999;29;20498;-61
2022/08/29 08:35:46;;;;;;;6.93;2.15;;;;;;;20.83;74.75;102231.72;4906819;29;20055;-62
2022/08/29 08:38:15;;;;;;;5.95;2.25;;;;;;;20.90;76.27;102236.16;4897222;29;20280;-61
2022/08/29 08:40:49;;;;;;;6.05;2.22;;;;;;;20.93;74.18;102225.16;4903557;29;20130;-60
2022/08/29 08:43:22;;;;;;;4.18;2.13;;;;;;;20.98;73.03;102240.59;4902868;29;20056;-60
2022/08/29 08:45:54;;;;;;;6.25;2.00;;;;;;;21.01;71.94;102229.59;4909147;29;20434;-60
2022/08/29 08:48:24;;;;;;;5.85;2.45;;;;;;;21.16;71.02;102231.44;4901033;29;20107;-60
2022/08/29 08:50:58;;;;;;;5.50;2.05;;;;;;;21.18;69.46;102230.22;4903512;29;20519;-62
2022/08/29 08:53:34;;;;;;;7.30;2.30;;;;;;;21.26;69.33;102240.00;4898678;29;20048;-61
2022/08/29 08:56:06;;;;;;;7.85;2.33;;;;;;;21.25;66.27;102241.03;4909668;29;20044;-59
2022/08/29 08:58:41;;;;;;;5.20;2.30;;;;;;;21.25;65.42;102241.03;4907860;29;20063;-60
2022/08/29 09:01:26;;;;;;;4.38;2.20;;;;;;;21.32;66.40;102237.41;4900360;29;20067;-61
2022/08/29 09:04:16;;;;;;;5.75;2.20;;;;;;;21.46;67.36;102233.13;4901578;29;20120;-61
2022/08/29 09:07:13;;;;;;;8.90;2.33;;;;;;;21.75;66.07;102222.63;4889244;29;20064;-61
2022/08/29 09:10:27;;;;;;;7.22;2.17;;;;;;;21.85;64.86;102225.81;4905906;29;20100;-60
2022/08/29 09:13:14;;;;;;;5.68;2.20;;;;;;;21.99;67.08;102218.78;4888291;29;20063;-60
2022/08/29 09:15:44;;;;;;;5.82;2.00;;;;;;;21.98;64.44;102223.31;4907249;29;20095;-60
2022/08/29 09:18:20;;;;;;;7.65;2.70;;;;;;;22.04;64.05;102219.06;4893688;29;20052;-61
2022/08/29 09:20:49;;;;;;;7.43;2.63;;;;;;;21.95;63.16;102226.34;4901897;29;20977;-61
2022/08/29 09:23:48;;;;;;;7.30;2.33;;;;;;;22.15;64.44;102233.75;4901666;29;20078;-60
2022/08/29 09:26:17;;;;;;;7.13;2.67;;;;;;;22.32;65.22;102227.19;4906173;29;20044;-61
2022/08/29 09:28:44;;;;;;;6.07;2.33;;;;;;;22.38;64.77;102230.94;4899587;29;20052;-60
2022/08/29 09:31:21;;;;;;;7.00;2.42;;;;;;;22.56;64.51;102234.00;4886615;29;20052;-60
2022/08/29 09:34:03;;;;;;;5.80;2.13;;;;;;;22.74;63.13;102238.03;4895603;29;20131;-59
2022/08/29 09:36:51;;;;;;;6.63;2.30;;;;;;;22.70;63.50;102225.06;4900738;29;20428;-60
2022/08/29 09:39:24;;;;;;;5.65;2.17;;;;;;;22.80;63.98;102226.59;4898585;29;20377;-61
2022/08/29 09:41:56;;;;;;;7.38;2.10;;;;;;;22.74;63.14;102232.69;4904544;29;20067;-60
2022/08/29 09:44:34;;;;;;;6.47;2.15;;;;;;;22.77;64.34;102232.31;4908103;29;20135;-61
2022/08/29 09:47:13;;;;;;;5.88;2.30;;;;;;;22.80;63.38;102229.28;4892541;29;20052;-61
2022/08/29 09:49:58;;;;;;;6.32;1.90;;;;;;;22.81;63.55;102225.56;4908557;29;20059;-61
2022/08/29 09:52:25;;;;;;;6.72;1.98;;;;;;;22.81;63.44;102228.22;4894100;29;20048;-61
2022/08/29 09:54:52;;;;;;;9.35;2.25;;;;;;;22.77;63.43;102227.78;4906118;29;20071;-61
2022/08/29 09:57:23;;;;;;;8.48;2.63;;;;;;;22.75;64.70;102226.34;4904104;29;20688;-62
2022/08/29 10:00:11;;;;;;;5.95;2.38;;;;;;;22.62;63.33;102230.56;4900891;29;20052;-61
2022/08/29 10:02:50;;;;;;;8.60;2.28;;;;;;;22.62;64.89;102227.88;4900492;29;20066;-62
2022/08/29 10:05:39;;;;;;;7.45;2.15;;;;;;;22.59;64.56;102230.13;4903673;29;20775;-61
2022/08/29 10:08:28;;;;;;;4.28;2.30;;;;;;;22.48;64.93;102229.63;4895054;29;20485;-65
2022/08/29 10:11:01;;;;;;;6.25;2.05;;;;;;;22.47;66.20;102232.47;4903093;29;20611;-58
2022/08/29 10:13:42;;;;;;;5.10;2.25;;;;;;;22.34;66.65;102225.13;4891000;29;20078;-61
2022/08/29 10:16:17;;;;;;;7.80;2.33;;;;;;;22.27;67.04;102229.59;4898124;29;20441;-60
2022/08/29 10:18:51;;;;;;;5.32;2.20;;;;;;;22.12;65.97;102234.97;4894945;29;20509;-60
2022/08/29 10:21:23;;;;;;;7.43;2.58;;;;;;;22.19;67.17;102227.84;4902914;29;20523;-60
2022/08/29 10:24:14;;;;;;;8.65;2.20;;;;;;;22.19;66.35;102230.53;4901316;29;20052;-62
2022/08/29 10:27:03;;;;;;;5.13;2.22;;;;;;;22.28;66.88;102225.91;4901168;29;20501;-60
2022/08/29 10:29:49;;;;;;;4.80;1.88;;;;;;;22.33;66.84;102223.50;4901375;29;20044;-59
2022/08/29 10:32:53;;;;;;;4.68;2.00;;;;;;;22.35;65.38;102223.31;4899762;29;20052;-62
2022/08/29 10:35:29;;;;;;;3.75;1.80;;;;;;;22.31;65.29;102220.19;4903279;29;20055;-61
2022/08/29 10:38:03;;;;;;;10.70;2.10;;;;;;;22.41;65.96;102225.22;4890927;29;20519;-60
2022/08/29 10:40:32;;;;;;;5.72;2.28;;;;;;;22.52;66.47;102227.34;4894736;29;20056;-62
2022/08/29 10:43:26;;;;;;;6.65;2.08;;;;;;;22.99;66.40;102228.59;4896553;29;20066;-61
2022/08/29 10:46:19;;;;;;;5.43;1.80;;;;;;;23.58;65.14;102221.97;4904645;29;20075;-61
2022/08/29 10:48:55;;;;;;;6.75;1.70;;;;;;;23.58;63.41;102213.94;4901371;29;20048;-62
2022/08/29 10:51:41;;;;;;;9.27;3.10;;;;;;;23.62;62.34;102225.03;4905686;29;20548;-62
2022/08/29 10:54:27;;;;;;;8.48;3.60;;;;;;;23.59;62.51;102223.59;4899459;29;20066;-59
2022/08/29 10:56:54;;;;;;;7.25;2.42;;;;;;;23.55;62.60;102219.66;4899619;29;20699;-61
2022/08/29 10:59:41;;;;;;;5.85;1.95;;;;;;;23.78;62.99;102215.91;4897148;29;20051;-60
2022/08/29 11:02:17;;;;;;;10.15;2.35;;;;;;;23.95;62.98;102214.47;4901667;29;20164;-61
2022/08/29 11:04:58;;;;;;;6.55;2.10;;;;;;;24.30;63.11;102216.22;4895359;29;20532;-61
2022/08/29 11:07:24;;;;;;;7.82;2.00;;;;;;;24.24;62.71;102216.00;4906534;29;20052;-60
2022/08/29 11:10:16;;;;;;;6.07;2.10;;;;;;;24.22;60.90;102214.56;4907756;29;20060;-60
2022/08/29 11:12:54;;;;;;;7.50;2.15;;;;;;;24.11;62.15;102218.69;4903192;29;20048;-62
2022/08/29 11:15:30;;;;;;;4.78;1.80;;;;;;;23.99;63.15;102213.09;4904454;29;20059;-60
2022/08/29 11:18:05;;;;;;;5.72;2.13;;;;;;;23.95;62.21;102200.28;4893903;29;20846;-59
2022/08/29 11:20:38;;;;;;;9.63;2.45;;;;;;;24.18;62.36;102197.22;4904898;29;20111;-61
2022/08/29 11:23:17;;;;;;;5.70;2.00;;;;;;;24.56;62.46;102186.78;4900751;29;20051;-61
2022/08/29 11:25:44;;;;;;;3.83;1.90;;;;;;;24.80;61.90;102181.81;4899768;29;20053;-61
2022/08/29 11:28:30;;;;;;;9.98;2.00;;;;;;;25.34;59.30;102186.03;4897578;29;20143;-61
2022/08/29 11:31:16;;;;;;;6.28;2.28;;;;;;;25.85;59.75;102181.66;4904573;29;20060;-62
2022/08/29 11:34:16;;;;;;;5.35;2.22;;;;;;;26.30;58.17;102183.47;4896050;29;20052;-60
2022/08/29 11:37:08;;;;;;;11.13;2.35;;;;;;;26.71;56.38;102165.97;4909013;29;20045;-62
2022/08/29 11:40:01;;;;;;;4.53;1.95;;;;;;;27.05;56.36;102163.75;4897830;29;20064;-59